sensor_id;sensor_type;location;lat;lon;timestamp;P1;durP1;ratioP1;P2;durP2;ratioP2
42742;SDS011;28397;44.552;-0.848;2023-09-30T00:00:46;25.38;;;13.45;;
42742;SDS011;28397;44.552;-0.848;2023-09-30T00:03:12;26.98;;;13.40;;
42742;SDS011;28397;44.552;-0.848;2023-09-30T00:05:37;27.08;;;13.25;;
42742;SDS011;28397;44.552;-0.848;2023-09-30T00:08:06;25.90;;;13.27;;
42742;SDS011;28397;44.552;-0.848;2023-09-30T00:10:32;29.80;;;13.38;;
42742;SDS011;28397;44.552;-0.848;2023-09-30T00:12:58;27.15;;;13.18;;
42742;SDS011;28397;44.552;-0.848;2023-09-30T00:15:24;25.55;;;12.85;;
42742;SDS011;28397;44.552;-0.848;2023-09-30T00:17:50;25.08;;;12.20;;
42742;SDS011;28397;44.552;-0.848;2023-09-30T00:20:15;25.63;;;13.13;;
42742;SDS011;28397;44.552;-0.848;2023-09-30T00:22:42;26.55;;;12.85;;
42742;SDS011;28397;44.552;-0.848;2023-09-30T00:25:08;25.15;;;12.55;;
42742;SDS011;28397;44.552;-0.848;2023-09-30T00:27:35;26.35;;;13.35;;
42742;SDS011;28397;44.552;-0.848;2023-09-30T00:30:01;23.92;;;12.23;;
42742;SDS011;28397;44.552;-0.848;2023-09-30T00:32:27;24.33;;;11.85;;
42742;SDS011;28397;44.552;-0.848;2023-09-30T00:34:53;25.27;;;12.60;;
42742;SDS011;28397;44.552;-0.848;2023-09-30T00:37:19;27.25;;;13.27;;
42742;SDS011;28397;44.552;-0.848;2023-09-30T00:39:45;24.92;;;11.60;;
42742;SDS011;28397;44.552;-0.848;2023-09-30T00:42:11;24.60;;;12.20;;
42742;SDS011;28397;44.552;-0.848;2023-09-30T00:44:37;22.63;;;12.00;;
42742;SDS011;28397;44.552;-0.848;2023-09-30T00:47:03;26.58;;;12.65;;
42742;SDS011;28397;44.552;-0.848;2023-09-30T00:49:29;25.15;;;12.23;;
42742;SDS011;28397;44.552;-0.848;2023-09-30T00:51:56;23.38;;;12.23;;
42742;SDS011;28397;44.552;-0.848;2023-09-30T00:54:22;24.58;;;12.27;;
42742;SDS011;28397;44.552;-0.848;2023-09-30T00:56:50;25.88;;;12.25;;
42742;SDS011;28397;44.552;-0.848;2023-09-30T00:59:17;24.35;;;12.55;;
42742;SDS011;28397;44.552;-0.848;2023-09-30T01:01:45;23.25;;;12.75;;
42742;SDS011;28397;44.552;-0.848;2023-09-30T01:04:11;23.83;;;12.05;;
42742;SDS011;28397;44.552;-0.848;2023-09-30T01:06:37;22.45;;;11.95;;
42742;SDS011;28397;44.552;-0.848;2023-09-30T01:09:04;22.50;;;11.90;;
42742;SDS011;28397;44.552;-0.848;2023-09-30T01:11:30;22.98;;;12.35;;
42742;SDS011;28397;44.552;-0.848;2023-09-30T01:13:56;23.55;;;12.60;;
42742;SDS011;28397;44.552;-0.848;2023-09-30T01:16:22;22.95;;;12.27;;
42742;SDS011;28397;44.552;-0.848;2023-09-30T01:18:48;20.83;;;12.00;;
42742;SDS011;28397;44.552;-0.848;2023-09-30T01:21:14;21.88;;;11.85;;
42742;SDS011;28397;44.552;-0.848;2023-09-30T01:23:40;22.92;;;12.38;;
42742;SDS011;28397;44.552;-0.848;2023-09-30T01:26:10;22.63;;;11.93;;
42742;SDS011;28397;44.552;-0.848;2023-09-30T01:28:40;24.20;;;12.65;;
42742;SDS011;28397;44.552;-0.848;2023-09-30T01:31:06;23.80;;;12.32;;
42742;SDS011;28397;44.552;-0.848;2023-09-30T01:33:32;21.17;;;12.00;;
42742;SDS011;28397;44.552;-0.848;2023-09-30T01:35:58;22.63;;;12.20;;
42742;SDS011;28397;44.552;-0.848;2023-09-30T01:38:24;23.35;;;12.60;;
42742;SDS011;28397;44.552;-0.848;2023-09-30T01:40:51;23.00;;;12.13;;
42742;SDS011;28397;44.552;-0.848;2023-09-30T01:43:17;22.40;;;11.52;;
42742;SDS011;28397;44.552;-0.848;2023-09-30T01:45:43;22.85;;;11.88;;
42742;SDS011;28397;44.552;-0.848;2023-09-30T01:48:09;21.55;;;11.90;;
42742;SDS011;28397;44.552;-0.848;2023-09-30T01:50:39;22.92;;;11.63;;
42742;SDS011;28397;44.552;-0.848;2023-09-30T01:53:05;23.40;;;12.23;;
42742;SDS011;28397;44.552;-0.848;2023-09-30T01:55:32;23.00;;;12.52;;
42742;SDS011;28397;44.552;-0.848;2023-09-30T01:57:58;24.08;;;12.38;;
42742;SDS011;28397;44.552;-0.848;2023-09-30T02:00:24;22.58;;;12.57;;
42742;SDS011;28397;44.552;-0.848;2023-09-30T02:02:50;24.13;;;12.35;;
42742;SDS011;28397;44.552;-0.848;2023-09-30T02:05:16;23.05;;;11.38;;
42742;SDS011;28397;44.552;-0.848;2023-09-30T02:07:41;20.70;;;11.10;;
42742;SDS011;28397;44.552;-0.848;2023-09-30T02:10:07;23.33;;;11.88;;
42742;SDS011;28397;44.552;-0.848;2023-09-30T02:12:33;23.92;;;12.25;;
42742;SDS011;28397;44.552;-0.848;2023-09-30T02:14:59;20.98;;;11.70;;
42742;SDS011;28397;44.552;-0.848;2023-09-30T02:17:24;18.95;;;11.85;;
42742;SDS011;28397;44.552;-0.848;2023-09-30T02:19:50;25.13;;;12.27;;
42742;SDS011;28397;44.552;-0.848;2023-09-30T02:22:16;24.95;;;12.00;;
42742;SDS011;28397;44.552;-0.848;2023-09-30T02:24:41;21.63;;;12.10;;
42742;SDS011;28397;44.552;-0.848;2023-09-30T02:27:07;20.38;;;11.23;;
42742;SDS011;28397;44.552;-0.848;2023-09-30T02:29:33;23.38;;;12.10;;
42742;SDS011;28397;44.552;-0.848;2023-09-30T02:31:59;21.13;;;11.75;;
42742;SDS011;28397;44.552;-0.848;2023-09-30T02:34:24;20.98;;;11.18;;
42742;SDS011;28397;44.552;-0.848;2023-09-30T02:36:50;22.27;;;11.70;;
42742;SDS011;28397;44.552;-0.848;2023-09-30T02:39:16;23.88;;;12.85;;
42742;SDS011;28397;44.552;-0.848;2023-09-30T02:41:43;23.35;;;12.45;;
42742;SDS011;28397;44.552;-0.848;2023-09-30T02:44:08;22.40;;;11.77;;
42742;SDS011;28397;44.552;-0.848;2023-09-30T02:46:34;22.38;;;11.50;;
42742;SDS011;28397;44.552;-0.848;2023-09-30T02:49:03;22.38;;;11.73;;
42742;SDS011;28397;44.552;-0.848;2023-09-30T02:51:29;18.55;;;10.80;;
42742;SDS011;28397;44.552;-0.848;2023-09-30T02:53:55;20.00;;;10.88;;
42742;SDS011;28397;44.552;-0.848;2023-09-30T02:56:21;21.05;;;11.93;;
42742;SDS011;28397;44.552;-0.848;2023-09-30T02:58:49;22.33;;;11.65;;
42742;SDS011;28397;44.552;-0.848;2023-09-30T03:01:16;23.42;;;11.05;;
42742;SDS011;28397;44.552;-0.848;2023-09-30T03:03:42;20.63;;;11.55;;
42742;SDS011;28397;44.552;-0.848;2023-09-30T03:06:11;19.13;;;10.93;;
42742;SDS011;28397;44.552;-0.848;2023-09-30T03:08:37;20.90;;;11.43;;
42742;SDS011;28397;44.552;-0.848;2023-09-30T03:11:03;20.25;;;11.65;;
42742;SDS011;28397;44.552;-0.848;2023-09-30T03:13:32;21.17;;;11.25;;
42742;SDS011;28397;44.552;-0.848;2023-09-30T03:15:58;20.05;;;11.20;;
42742;SDS011;28397;44.552;-0.848;2023-09-30T03:18:26;18.73;;;10.48;;
42742;SDS011;28397;44.552;-0.848;2023-09-30T03:21:01;18.63;;;10.93;;
42742;SDS011;28397;44.552;-0.848;2023-09-30T03:23:33;21.75;;;11.80;;
42742;SDS011;28397;44.552;-0.848;2023-09-30T03:26:00;19.98;;;11.55;;
42742;SDS011;28397;44.552;-0.848;2023-09-30T03:28:29;21.88;;;11.77;;
42742;SDS011;28397;44.552;-0.848;2023-09-30T03:30:54;21.85;;;11.70;;
42742;SDS011;28397;44.552;-0.848;2023-09-30T03:33:21;22.17;;;12.32;;
42742;SDS011;28397;44.552;-0.848;2023-09-30T03:35:47;21.63;;;11.68;;
42742;SDS011;28397;44.552;-0.848;2023-09-30T03:38:13;20.30;;;11.48;;
42742;SDS011;28397;44.552;-0.848;2023-09-30T03:40:41;20.23;;;11.25;;
42742;SDS011;28397;44.552;-0.848;2023-09-30T03:43:12;22.13;;;11.60;;
42742;SDS011;28397;44.552;-0.848;2023-09-30T03:45:41;20.98;;;11.15;;
42742;SDS011;28397;44.552;-0.848;2023-09-30T03:48:07;22.25;;;12.32;;
42742;SDS011;28397;44.552;-0.848;2023-09-30T03:50:35;22.48;;;11.40;;
42742;SDS011;28397;44.552;-0.848;2023-09-30T03:53:01;20.80;;;11.07;;
42742;SDS011;28397;44.552;-0.848;2023-09-30T03:55:27;21.83;;;11.57;;
42742;SDS011;28397;44.552;-0.848;2023-09-30T03:57:54;20.20;;;11.32;;
42742;SDS011;28397;44.552;-0.848;2023-09-30T04:00:20;20.45;;;11.63;;
42742;SDS011;28397;44.552;-0.848;2023-09-30T04:02:47;21.42;;;11.75;;
42742;SDS011;28397;44.552;-0.848;2023-09-30T04:05:14;21.27;;;11.73;;
42742;SDS011;28397;44.552;-0.848;2023-09-30T04:07:42;19.50;;;11.35;;
42742;SDS011;28397;44.552;-0.848;2023-09-30T04:10:08;19.90;;;11.13;;
42742;SDS011;28397;44.552;-0.848;2023-09-30T04:12:35;19.83;;;11.15;;
42742;SDS011;28397;44.552;-0.848;2023-09-30T04:15:02;19.42;;;11.10;;
42742;SDS011;28397;44.552;-0.848;2023-09-30T04:17:28;21.77;;;11.95;;
42742;SDS011;28397;44.552;-0.848;2023-09-30T04:19:54;20.13;;;11.40;;
42742;SDS011;28397;44.552;-0.848;2023-09-30T04:22:20;20.60;;;10.95;;
42742;SDS011;28397;44.552;-0.848;2023-09-30T04:24:50;21.73;;;11.57;;
42742;SDS011;28397;44.552;-0.848;2023-09-30T04:27:16;19.88;;;11.20;;
42742;SDS011;28397;44.552;-0.848;2023-09-30T04:29:42;21.85;;;11.15;;
42742;SDS011;28397;44.552;-0.848;2023-09-30T04:32:08;18.98;;;11.05;;
42742;SDS011;28397;44.552;-0.848;2023-09-30T04:34:34;20.10;;;11.82;;
42742;SDS011;28397;44.552;-0.848;2023-09-30T04:37:00;22.45;;;12.73;;
42742;SDS011;28397;44.552;-0.848;2023-09-30T04:39:27;21.58;;;12.25;;
42742;SDS011;28397;44.552;-0.848;2023-09-30T04:41:52;22.08;;;12.70;;
42742;SDS011;28397;44.552;-0.848;2023-09-30T04:44:20;22.48;;;12.13;;
42742;SDS011;28397;44.552;-0.848;2023-09-30T04:46:46;21.20;;;12.52;;
42742;SDS011;28397;44.552;-0.848;2023-09-30T04:49:15;18.55;;;11.07;;
42742;SDS011;28397;44.552;-0.848;2023-09-30T04:51:42;20.23;;;10.48;;
42742;SDS011;28397;44.552;-0.848;2023-09-30T04:54:08;21.25;;;11.85;;
42742;SDS011;28397;44.552;-0.848;2023-09-30T04:56:34;21.92;;;12.40;;
42742;SDS011;28397;44.552;-0.848;2023-09-30T04:59:00;20.70;;;11.48;;
42742;SDS011;28397;44.552;-0.848;2023-09-30T05:01:27;18.08;;;11.00;;
42742;SDS011;28397;44.552;-0.848;2023-09-30T05:03:53;20.98;;;12.35;;
42742;SDS011;28397;44.552;-0.848;2023-09-30T05:06:19;20.40;;;11.50;;
42742;SDS011;28397;44.552;-0.848;2023-09-30T05:08:46;22.73;;;10.90;;
42742;SDS011;28397;44.552;-0.848;2023-09-30T05:11:12;21.95;;;11.65;;
42742;SDS011;28397;44.552;-0.848;2023-09-30T05:13:38;19.95;;;11.23;;
42742;SDS011;28397;44.552;-0.848;2023-09-30T05:16:04;20.17;;;12.57;;
42742;SDS011;28397;44.552;-0.848;2023-09-30T05:18:32;19.45;;;11.38;;
42742;SDS011;28397;44.552;-0.848;2023-09-30T05:20:58;21.33;;;11.38;;
42742;SDS011;28397;44.552;-0.848;2023-09-30T05:23:24;19.65;;;11.20;;
42742;SDS011;28397;44.552;-0.848;2023-09-30T05:25:50;21.55;;;10.82;;
42742;SDS011;28397;44.552;-0.848;2023-09-30T05:28:16;18.90;;;10.68;;
42742;SDS011;28397;44.552;-0.848;2023-09-30T05:30:42;18.60;;;10.98;;
42742;SDS011;28397;44.552;-0.848;2023-09-30T05:33:08;19.77;;;10.95;;
42742;SDS011;28397;44.552;-0.848;2023-09-30T05:35:39;21.20;;;11.68;;
42742;SDS011;28397;44.552;-0.848;2023-09-30T05:38:07;20.80;;;11.38;;
42742;SDS011;28397;44.552;-0.848;2023-09-30T05:40:34;18.42;;;10.35;;
42742;SDS011;28397;44.552;-0.848;2023-09-30T05:42:59;20.50;;;11.13;;
42742;SDS011;28397;44.552;-0.848;2023-09-30T05:45:26;18.23;;;10.10;;
42742;SDS011;28397;44.552;-0.848;2023-09-30T05:47:53;20.75;;;10.60;;
42742;SDS011;28397;44.552;-0.848;2023-09-30T05:50:21;20.52;;;11.30;;
42742;SDS011;28397;44.552;-0.848;2023-09-30T05:52:53;18.70;;;10.85;;
42742;SDS011;28397;44.552;-0.848;2023-09-30T05:55:20;19.77;;;11.35;;
42742;SDS011;28397;44.552;-0.848;2023-09-30T05:57:47;20.23;;;10.73;;
42742;SDS011;28397;44.552;-0.848;2023-09-30T06:00:15;17.25;;;10.48;;
42742;SDS011;28397;44.552;-0.848;2023-09-30T06:02:55;17.88;;;10.27;;
42742;SDS011;28397;44.552;-0.848;2023-09-30T06:05:24;19.20;;;10.25;;
42742;SDS011;28397;44.552;-0.848;2023-09-30T06:07:55;20.23;;;10.70;;
42742;SDS011;28397;44.552;-0.848;2023-09-30T06:10:22;17.23;;;9.90;;
42742;SDS011;28397;44.552;-0.848;2023-09-30T06:12:48;18.98;;;10.65;;
42742;SDS011;28397;44.552;-0.848;2023-09-30T06:15:19;20.17;;;10.55;;
42742;SDS011;28397;44.552;-0.848;2023-09-30T06:17:49;20.08;;;10.63;;
42742;SDS011;28397;44.552;-0.848;2023-09-30T06:20:17;21.33;;;11.10;;
42742;SDS011;28397;44.552;-0.848;2023-09-30T06:22:46;17.65;;;10.48;;
42742;SDS011;28397;44.552;-0.848;2023-09-30T06:25:14;20.58;;;10.73;;
42742;SDS011;28397;44.552;-0.848;2023-09-30T06:27:43;18.77;;;11.07;;
42742;SDS011;28397;44.552;-0.848;2023-09-30T06:30:10;19.02;;;10.57;;
42742;SDS011;28397;44.552;-0.848;2023-09-30T06:32:36;19.30;;;10.82;;
42742;SDS011;28397;44.552;-0.848;2023-09-30T06:35:02;18.83;;;10.70;;
42742;SDS011;28397;44.552;-0.848;2023-09-30T06:37:29;20.48;;;11.57;;
42742;SDS011;28397;44.552;-0.848;2023-09-30T06:39:55;19.63;;;10.70;;
42742;SDS011;28397;44.552;-0.848;2023-09-30T06:42:21;18.70;;;10.50;;
42742;SDS011;28397;44.552;-0.848;2023-09-30T06:44:47;21.65;;;11.07;;
42742;SDS011;28397;44.552;-0.848;2023-09-30T06:47:12;19.33;;;10.85;;
42742;SDS011;28397;44.552;-0.848;2023-09-30T06:49:39;18.33;;;10.38;;
42742;SDS011;28397;44.552;-0.848;2023-09-30T06:52:04;18.83;;;10.88;;
42742;SDS011;28397;44.552;-0.848;2023-09-30T06:54:31;18.73;;;10.68;;
42742;SDS011;28397;44.552;-0.848;2023-09-30T06:56:56;21.08;;;11.27;;
42742;SDS011;28397;44.552;-0.848;2023-09-30T06:59:22;19.30;;;10.88;;
42742;SDS011;28397;44.552;-0.848;2023-09-30T07:01:50;20.17;;;10.77;;
42742;SDS011;28397;44.552;-0.848;2023-09-30T07:04:16;20.15;;;10.75;;
42742;SDS011;28397;44.552;-0.848;2023-09-30T07:06:41;17.90;;;10.52;;
42742;SDS011;28397;44.552;-0.848;2023-09-30T07:09:07;19.60;;;10.20;;
42742;SDS011;28397;44.552;-0.848;2023-09-30T07:11:34;20.58;;;10.60;;
42742;SDS011;28397;44.552;-0.848;2023-09-30T07:14:00;19.35;;;10.63;;
42742;SDS011;28397;44.552;-0.848;2023-09-30T07:16:26;19.00;;;10.32;;
42742;SDS011;28397;44.552;-0.848;2023-09-30T07:18:52;20.08;;;10.98;;
42742;SDS011;28397;44.552;-0.848;2023-09-30T07:21:17;21.02;;;10.73;;
42742;SDS011;28397;44.552;-0.848;2023-09-30T07:23:43;18.00;;;10.40;;
42742;SDS011;28397;44.552;-0.848;2023-09-30T07:26:09;19.38;;;10.73;;
42742;SDS011;28397;44.552;-0.848;2023-09-30T07:28:34;19.10;;;10.65;;
42742;SDS011;28397;44.552;-0.848;2023-09-30T07:31:00;19.75;;;10.93;;
42742;SDS011;28397;44.552;-0.848;2023-09-30T07:33:26;20.50;;;10.90;;
42742;SDS011;28397;44.552;-0.848;2023-09-30T07:35:51;21.25;;;11.15;;
42742;SDS011;28397;44.552;-0.848;2023-09-30T07:38:17;19.38;;;10.63;;
42742;SDS011;28397;44.552;-0.848;2023-09-30T07:40:43;18.88;;;10.95;;
42742;SDS011;28397;44.552;-0.848;2023-09-30T07:43:09;20.75;;;11.32;;
42742;SDS011;28397;44.552;-0.848;2023-09-30T07:45:37;21.98;;;11.23;;
42742;SDS011;28397;44.552;-0.848;2023-09-30T07:48:04;22.67;;;11.88;;
42742;SDS011;28397;44.552;-0.848;2023-09-30T07:50:30;22.45;;;11.80;;
42742;SDS011;28397;44.552;-0.848;2023-09-30T07:52:56;20.98;;;11.30;;
42742;SDS011;28397;44.552;-0.848;2023-09-30T07:55:23;20.65;;;11.40;;
42742;SDS011;28397;44.552;-0.848;2023-09-30T07:57:49;22.05;;;11.52;;
42742;SDS011;28397;44.552;-0.848;2023-09-30T08:00:15;18.33;;;10.68;;
42742;SDS011;28397;44.552;-0.848;2023-09-30T08:02:41;18.88;;;10.45;;
42742;SDS011;28397;44.552;-0.848;2023-09-30T08:05:08;22.05;;;12.20;;
42742;SDS011;28397;44.552;-0.848;2023-09-30T08:07:34;21.70;;;11.48;;
42742;SDS011;28397;44.552;-0.848;2023-09-30T08:10:00;22.83;;;11.25;;
42742;SDS011;28397;44.552;-0.848;2023-09-30T08:12:29;22.65;;;11.50;;
42742;SDS011;28397;44.552;-0.848;2023-09-30T08:14:55;18.00;;;10.18;;
42742;SDS011;28397;44.552;-0.848;2023-09-30T08:17:21;19.55;;;10.90;;
42742;SDS011;28397;44.552;-0.848;2023-09-30T08:19:46;19.83;;;10.45;;
42742;SDS011;28397;44.552;-0.848;2023-09-30T08:22:13;19.17;;;10.88;;
42742;SDS011;28397;44.552;-0.848;2023-09-30T08:24:39;20.20;;;11.00;;
42742;SDS011;28397;44.552;-0.848;2023-09-30T08:27:04;19.13;;;9.85;;
42742;SDS011;28397;44.552;-0.848;2023-09-30T08:29:33;17.45;;;9.02;;
42742;SDS011;28397;44.552;-0.848;2023-09-30T08:32:01;20.83;;;9.45;;
42742;SDS011;28397;44.552;-0.848;2023-09-30T08:34:27;18.58;;;9.20;;
42742;SDS011;28397;44.552;-0.848;2023-09-30T08:36:54;17.27;;;9.52;;
42742;SDS011;28397;44.552;-0.848;2023-09-30T08:39:19;18.27;;;9.25;;
42742;SDS011;28397;44.552;-0.848;2023-09-30T08:41:45;15.88;;;8.30;;
42742;SDS011;28397;44.552;-0.848;2023-09-30T08:44:11;15.07;;;8.93;;
42742;SDS011;28397;44.552;-0.848;2023-09-30T08:46:38;14.30;;;7.63;;
42742;SDS011;28397;44.552;-0.848;2023-09-30T08:49:06;15.95;;;8.13;;
42742;SDS011;28397;44.552;-0.848;2023-09-30T08:51:32;14.40;;;7.90;;
42742;SDS011;28397;44.552;-0.848;2023-09-30T08:53:58;15.50;;;7.75;;
42742;SDS011;28397;44.552;-0.848;2023-09-30T08:56:29;14.70;;;7.45;;
42742;SDS011;28397;44.552;-0.848;2023-09-30T08:58:59;15.32;;;7.38;;
42742;SDS011;28397;44.552;-0.848;2023-09-30T09:01:30;14.73;;;7.38;;
42742;SDS011;28397;44.552;-0.848;2023-09-30T09:03:56;13.65;;;7.82;;
42742;SDS011;28397;44.552;-0.848;2023-09-30T09:06:22;11.15;;;7.55;;
42742;SDS011;28397;44.552;-0.848;2023-09-30T09:08:49;16.27;;;7.78;;
42742;SDS011;28397;44.552;-0.848;2023-09-30T09:11:16;15.30;;;7.70;;
42742;SDS011;28397;44.552;-0.848;2023-09-30T09:13:46;15.15;;;8.13;;
42742;SDS011;28397;44.552;-0.848;2023-09-30T09:16:15;14.05;;;7.63;;
42742;SDS011;28397;44.552;-0.848;2023-09-30T09:18:42;14.13;;;7.50;;
42742;SDS011;28397;44.552;-0.848;2023-09-30T09:21:12;14.35;;;7.78;;
42742;SDS011;28397;44.552;-0.848;2023-09-30T09:23:45;17.92;;;8.52;;
42742;SDS011;28397;44.552;-0.848;2023-09-30T09:26:22;18.38;;;8.40;;
42742;SDS011;28397;44.552;-0.848;2023-09-30T09:28:59;16.95;;;8.40;;
42742;SDS011;28397;44.552;-0.848;2023-09-30T09:33:56;15.63;;;7.35;;
42742;SDS011;28397;44.552;-0.848;2023-09-30T09:36:38;18.45;;;8.48;;
42742;SDS011;28397;44.552;-0.848;2023-09-30T09:39:11;14.60;;;7.65;;
42742;SDS011;28397;44.552;-0.848;2023-09-30T09:44:19;14.02;;;7.30;;
42742;SDS011;28397;44.552;-0.848;2023-09-30T09:46:47;13.82;;;7.10;;
42742;SDS011;28397;44.552;-0.848;2023-09-30T09:49:15;12.95;;;6.78;;
42742;SDS011;28397;44.552;-0.848;2023-09-30T09:51:45;12.48;;;6.70;;
42742;SDS011;28397;44.552;-0.848;2023-09-30T09:54:13;12.93;;;6.35;;
42742;SDS011;28397;44.552;-0.848;2023-09-30T09:56:40;13.50;;;5.72;;
42742;SDS011;28397;44.552;-0.848;2023-09-30T09:59:11;12.90;;;6.15;;
42742;SDS011;28397;44.552;-0.848;2023-09-30T10:01:37;11.65;;;6.25;;
42742;SDS011;28397;44.552;-0.848;2023-09-30T10:04:05;10.23;;;5.80;;
42742;SDS011;28397;44.552;-0.848;2023-09-30T10:06:31;12.20;;;5.82;;
42742;SDS011;28397;44.552;-0.848;2023-09-30T10:09:03;11.82;;;5.90;;
42742;SDS011;28397;44.552;-0.848;2023-09-30T10:11:32;10.45;;;5.80;;
42742;SDS011;28397;44.552;-0.848;2023-09-30T10:13:59;12.27;;;6.45;;
42742;SDS011;28397;44.552;-0.848;2023-09-30T10:19:12;11.30;;;5.57;;
42742;SDS011;28397;44.552;-0.848;2023-09-30T10:21:39;11.98;;;5.90;;
42742;SDS011;28397;44.552;-0.848;2023-09-30T10:30:18;15.13;;;6.60;;
42742;SDS011;28397;44.552;-0.848;2023-09-30T10:33:26;11.40;;;5.88;;
42742;SDS011;28397;44.552;-0.848;2023-09-30T10:40:53;12.27;;;6.30;;
42742;SDS011;28397;44.552;-0.848;2023-09-30T10:43:34;10.43;;;5.90;;
42742;SDS011;28397;44.552;-0.848;2023-09-30T10:46:02;7.95;;;5.45;;
42742;SDS011;28397;44.552;-0.848;2023-09-30T10:48:48;10.55;;;5.72;;
42742;SDS011;28397;44.552;-0.848;2023-09-30T10:51:17;9.75;;;5.57;;
42742;SDS011;28397;44.552;-0.848;2023-09-30T10:56:14;9.18;;;5.10;;
42742;SDS011;28397;44.552;-0.848;2023-09-30T10:58:47;10.05;;;5.18;;
42742;SDS011;28397;44.552;-0.848;2023-09-30T11:01:18;11.05;;;5.47;;
42742;SDS011;28397;44.552;-0.848;2023-09-30T11:03:49;11.15;;;5.70;;
42742;SDS011;28397;44.552;-0.848;2023-09-30T11:06:21;9.15;;;4.97;;
42742;SDS011;28397;44.552;-0.848;2023-09-30T11:08:53;9.73;;;5.55;;
42742;SDS011;28397;44.552;-0.848;2023-09-30T11:11:38;10.35;;;5.65;;
42742;SDS011;28397;44.552;-0.848;2023-09-30T11:14:24;15.50;;;12.40;;
42742;SDS011;28397;44.552;-0.848;2023-09-30T11:16:51;11.65;;;8.13;;
42742;SDS011;28397;44.552;-0.848;2023-09-30T11:19:18;15.10;;;8.48;;
42742;SDS011;28397;44.552;-0.848;2023-09-30T11:21:46;9.35;;;6.82;;
42742;SDS011;28397;44.552;-0.848;2023-09-30T11:24:13;8.88;;;5.40;;
42742;SDS011;28397;44.552;-0.848;2023-09-30T11:26:39;8.05;;;5.00;;
42742;SDS011;28397;44.552;-0.848;2023-09-30T11:31:39;8.20;;;4.85;;
42742;SDS011;28397;44.552;-0.848;2023-09-30T11:34:06;7.18;;;4.88;;
42742;SDS011;28397;44.552;-0.848;2023-09-30T11:36:36;8.10;;;4.65;;
42742;SDS011;28397;44.552;-0.848;2023-09-30T11:39:04;6.95;;;4.45;;
42742;SDS011;28397;44.552;-0.848;2023-09-30T11:41:34;8.02;;;4.80;;
42742;SDS011;28397;44.552;-0.848;2023-09-30T11:46:26;8.32;;;4.53;;
42742;SDS011;28397;44.552;-0.848;2023-09-30T11:49:10;8.93;;;4.95;;
42742;SDS011;28397;44.552;-0.848;2023-09-30T11:51:43;9.00;;;4.20;;
42742;SDS011;28397;44.552;-0.848;2023-09-30T11:54:13;6.57;;;4.20;;
42742;SDS011;28397;44.552;-0.848;2023-09-30T11:56:39;8.85;;;4.90;;
42742;SDS011;28397;44.552;-0.848;2023-09-30T11:59:05;9.07;;;4.88;;
42742;SDS011;28397;44.552;-0.848;2023-09-30T12:01:31;7.25;;;4.70;;
42742;SDS011;28397;44.552;-0.848;2023-09-30T12:03:57;8.10;;;4.85;;
42742;SDS011;28397;44.552;-0.848;2023-09-30T12:06:23;7.45;;;4.30;;
42742;SDS011;28397;44.552;-0.848;2023-09-30T12:08:49;7.22;;;4.38;;
42742;SDS011;28397;44.552;-0.848;2023-09-30T12:11:17;8.15;;;4.38;;
42742;SDS011;28397;44.552;-0.848;2023-09-30T12:13:43;7.45;;;4.80;;
42742;SDS011;28397;44.552;-0.848;2023-09-30T12:16:10;7.95;;;4.63;;
42742;SDS011;28397;44.552;-0.848;2023-09-30T12:18:38;7.35;;;4.38;;
42742;SDS011;28397;44.552;-0.848;2023-09-30T12:21:06;7.95;;;4.78;;
42742;SDS011;28397;44.552;-0.848;2023-09-30T12:23:45;8.35;;;4.75;;
42742;SDS011;28397;44.552;-0.848;2023-09-30T12:26:11;7.55;;;4.75;;
42742;SDS011;28397;44.552;-0.848;2023-09-30T12:28:37;8.23;;;4.75;;
42742;SDS011;28397;44.552;-0.848;2023-09-30T12:31:04;8.13;;;4.47;;
42742;SDS011;28397;44.552;-0.848;2023-09-30T12:33:30;8.35;;;4.28;;
42742;SDS011;28397;44.552;-0.848;2023-09-30T12:35:57;8.15;;;4.53;;
42742;SDS011;28397;44.552;-0.848;2023-09-30T12:38:26;6.68;;;4.45;;
42742;SDS011;28397;44.552;-0.848;2023-09-30T12:40:53;6.97;;;4.25;;
42742;SDS011;28397;44.552;-0.848;2023-09-30T12:43:20;6.20;;;4.55;;
42742;SDS011;28397;44.552;-0.848;2023-09-30T12:45:47;7.63;;;4.57;;
42742;SDS011;28397;44.552;-0.848;2023-09-30T12:48:13;8.93;;;4.90;;
42742;SDS011;28397;44.552;-0.848;2023-09-30T12:50:39;7.22;;;4.53;;
42742;SDS011;28397;44.552;-0.848;2023-09-30T12:53:06;8.10;;;4.63;;
42742;SDS011;28397;44.552;-0.848;2023-09-30T12:55:32;8.32;;;5.00;;
42742;SDS011;28397;44.552;-0.848;2023-09-30T12:57:58;8.15;;;4.88;;
42742;SDS011;28397;44.552;-0.848;2023-09-30T13:00:25;7.32;;;4.70;;
42742;SDS011;28397;44.552;-0.848;2023-09-30T13:02:51;6.57;;;4.38;;
42742;SDS011;28397;44.552;-0.848;2023-09-30T13:05:17;8.55;;;4.60;;
42742;SDS011;28397;44.552;-0.848;2023-09-30T13:07:43;6.03;;;4.28;;
42742;SDS011;28397;44.552;-0.848;2023-09-30T13:10:09;9.40;;;4.97;;
42742;SDS011;28397;44.552;-0.848;2023-09-30T13:12:35;8.23;;;4.47;;
42742;SDS011;28397;44.552;-0.848;2023-09-30T13:15:00;8.73;;;4.28;;
42742;SDS011;28397;44.552;-0.848;2023-09-30T13:17:27;7.55;;;4.78;;
42742;SDS011;28397;44.552;-0.848;2023-09-30T13:19:54;7.55;;;4.38;;
42742;SDS011;28397;44.552;-0.848;2023-09-30T13:22:20;7.80;;;4.22;;
42742;SDS011;28397;44.552;-0.848;2023-09-30T13:24:46;9.13;;;4.13;;
42742;SDS011;28397;44.552;-0.848;2023-09-30T13:27:11;6.40;;;4.15;;
42742;SDS011;28397;44.552;-0.848;2023-09-30T13:29:40;6.53;;;4.00;;
42742;SDS011;28397;44.552;-0.848;2023-09-30T13:32:06;6.72;;;4.07;;
42742;SDS011;28397;44.552;-0.848;2023-09-30T13:34:34;7.95;;;4.45;;
42742;SDS011;28397;44.552;-0.848;2023-09-30T13:36:59;6.97;;;4.43;;
42742;SDS011;28397;44.552;-0.848;2023-09-30T13:39:25;7.82;;;4.50;;
42742;SDS011;28397;44.552;-0.848;2023-09-30T13:41:51;7.45;;;4.18;;
42742;SDS011;28397;44.552;-0.848;2023-09-30T13:44:16;8.07;;;4.80;;
42742;SDS011;28397;44.552;-0.848;2023-09-30T13:46:43;8.45;;;4.15;;
42742;SDS011;28397;44.552;-0.848;2023-09-30T13:49:09;8.65;;;4.78;;
42742;SDS011;28397;44.552;-0.848;2023-09-30T13:51:35;5.95;;;4.25;;
42742;SDS011;28397;44.552;-0.848;2023-09-30T13:54:00;7.25;;;4.22;;
42742;SDS011;28397;44.552;-0.848;2023-09-30T13:56:26;6.72;;;4.32;;
42742;SDS011;28397;44.552;-0.848;2023-09-30T13:58:52;7.18;;;4.30;;
42742;SDS011;28397;44.552;-0.848;2023-09-30T14:01:18;8.07;;;4.32;;
42742;SDS011;28397;44.552;-0.848;2023-09-30T14:03:45;9.77;;;4.20;;
42742;SDS011;28397;44.552;-0.848;2023-09-30T14:06:12;8.02;;;4.53;;
42742;SDS011;28397;44.552;-0.848;2023-09-30T14:08:38;7.63;;;4.38;;
42742;SDS011;28397;44.552;-0.848;2023-09-30T14:11:07;6.07;;;4.13;;
42742;SDS011;28397;44.552;-0.848;2023-09-30T14:13:33;5.70;;;3.90;;
42742;SDS011;28397;44.552;-0.848;2023-09-30T14:15:59;6.45;;;4.22;;
42742;SDS011;28397;44.552;-0.848;2023-09-30T14:18:24;6.57;;;4.03;;
42742;SDS011;28397;44.552;-0.848;2023-09-30T14:20:50;6.35;;;4.20;;
42742;SDS011;28397;44.552;-0.848;2023-09-30T14:23:16;5.97;;;3.97;;
42742;SDS011;28397;44.552;-0.848;2023-09-30T14:25:41;6.68;;;4.22;;
42742;SDS011;28397;44.552;-0.848;2023-09-30T14:28:07;6.30;;;4.18;;
42742;SDS011;28397;44.552;-0.848;2023-09-30T14:30:33;5.88;;;4.53;;
42742;SDS011;28397;44.552;-0.848;2023-09-30T14:32:59;6.03;;;4.07;;
42742;SDS011;28397;44.552;-0.848;2023-09-30T14:35:25;6.93;;;3.92;;
42742;SDS011;28397;44.552;-0.848;2023-09-30T14:37:51;6.85;;;4.40;;
42742;SDS011;28397;44.552;-0.848;2023-09-30T14:40:19;7.95;;;4.50;;
42742;SDS011;28397;44.552;-0.848;2023-09-30T14:42:45;7.63;;;4.22;;